Time;durP1;ratioP1;P1;durP2;ratioP2;P2;SDS_P1;SDS_P2;PMS_P1;PMS_P2;Temp;Humidity;BMP_temperature;BMP_pressure;BME280_temperature;BME280_humidity;BME280_pressure;Samples;Min_cycle;Max_cycle;Signal;HPM_P1;HPM_P2
2021/08/10 00:00:50;;;;;;;10.10;6.90;;;23.20;69.60;;;;;;4995256;28;20033;-73
2021/08/10 00:03:16;;;;;;;8.70;6.50;;;23.20;69.10;;;;;;4994947;28;20023;-73
2021/08/10 00:05:47;;;;;;;9.48;6.82;;;23.20;69.30;;;;;;4994828;28;20034;-74
2021/08/10 00:08:17;;;;;;;8.68;6.43;;;23.10;69.40;;;;;;4994606;28;20802;-75
2021/08/10 00:10:44;;;;;;;9.65;7.63;;;23.10;69.40;;;;;;4994806;28;20058;-74
2021/08/10 00:13:14;;;;;;;10.07;6.63;;;23.10;70.10;;;;;;4994814;28;20025;-73
2021/08/10 00:15:40;;;;;;;8.98;7.00;;;23.10;69.70;;;;;;4995033;28;20030;-73
2021/08/10 00:18:06;;;;;;;13.30;7.65;;;23.10;69.80;;;;;;4995156;28;20049;-73
2021/08/10 00:20:34;;;;;;;12.85;7.78;;;23.10;70.00;;;;;;4995009;28;20032;-73
2021/08/10 00:23:00;;;;;;;11.65;7.57;;;23.00;70.10;;;;;;4995066;28;20098;-73
2021/08/10 00:25:26;;;;;;;10.82;7.45;;;23.00;70.30;;;;;;4994989;28;20113;-73
2021/08/10 00:27:52;;;;;;;10.45;7.47;;;23.00;70.60;;;;;;4995001;28;20033;-73
2021/08/10 00:30:20;;;;;;;13.30;7.32;;;23.00;70.80;;;;;;4994769;28;20018;-73
2021/08/10 00:32:46;;;;;;;11.68;8.23;;;23.00;71.10;;;;;;4994839;28;20054;-73
2021/08/10 00:35:12;;;;;;;9.95;7.45;;;23.00;71.40;;;;;;4994826;28;20034;-73
2021/08/10 00:37:38;;;;;;;10.43;8.05;;;22.90;71.50;;;;;;4994903;28;20038;-74
2021/08/10 00:40:04;;;;;;;12.80;7.68;;;22.90;71.60;;;;;;4994891;28;20038;-74
2021/08/10 00:42:30;;;;;;;9.55;7.30;;;22.90;71.80;;;;;;4994691;28;20472;-74
2021/08/10 00:44:56;;;;;;;15.80;8.73;;;22.90;71.90;;;;;;4994625;28;20042;-74
2021/08/10 00:47:21;;;;;;;8.93;7.60;;;22.90;72.10;;;;;;4994738;28;20026;-74
2021/08/10 00:49:47;;;;;;;13.13;8.05;;;22.90;72.20;;;;;;4994692;28;20026;-74
2021/08/10 00:52:13;;;;;;;9.95;8.35;;;22.80;72.20;;;;;;4994300;28;20023;-74
2021/08/10 00:54:38;;;;;;;14.30;8.20;;;22.80;72.30;;;;;;4994384;28;20372;-74
2021/08/10 00:57:04;;;;;;;14.68;8.57;;;22.80;72.50;;;;;;4994369;28;20088;-74
2021/08/10 00:59:30;;;;;;;13.15;8.57;;;22.80;72.70;;;;;;4994341;28;20037;-74
2021/08/10 01:01:56;;;;;;;10.02;8.60;;;22.70;72.70;;;;;;4994162;28;20081;-74
2021/08/10 01:04:21;;;;;;;9.45;8.05;;;22.70;73.00;;;;;;4994141;28;20038;-74
2021/08/10 01:07:09;;;;;;;12.30;8.32;;;22.70;73.20;;;;;;4994161;28;20118;-74
2021/08/10 01:09:42;;;;;;;11.98;8.75;;;22.60;73.50;;;;;;5009109;28;20030;-74
2021/08/10 01:12:18;;;;;;;11.43;8.73;;;22.60;73.60;;;;;;4994130;28;20022;-74
2021/08/10 01:14:55;;;;;;;13.02;8.35;;;22.60;74.00;;;;;;4994331;28;20369;-74
2021/08/10 01:17:25;;;;;;;10.30;9.20;;;22.60;74.10;;;;;;4993971;28;20037;-74
2021/08/10 01:20:18;;;;;;;11.50;8.98;;;22.50;74.40;;;;;;4993164;28;20527;-74
2021/08/10 01:22:47;;;;;;;12.93;9.05;;;22.50;74.80;;;;;;4993777;28;20508;-74
2021/08/10 01:25:42;;;;;;;10.00;7.97;;;22.50;75.00;;;;;;4994112;28;20026;-74
2021/08/10 01:28:44;;;;;;;13.18;9.38;;;22.50;75.40;;;;;;4993754;28;20093;-74
2021/08/10 01:31:21;;;;;;;11.20;9.18;;;22.40;75.50;;;;;;4993990;28;20726;-74
2021/08/10 01:33:50;;;;;;;12.65;9.43;;;22.40;75.70;;;;;;4993516;28;20042;-75
2021/08/10 01:36:19;;;;;;;11.60;9.25;;;22.40;75.80;;;;;;4993599;28;20109;-74
2021/08/10 01:38:47;;;;;;;12.30;10.00;;;22.40;76.10;;;;;;4993534;28;20034;-75
2021/08/10 01:41:14;;;;;;;10.52;9.40;;;22.30;76.30;;;;;;4993451;28;20125;-74
2021/08/10 01:43:41;;;;;;;13.68;9.20;;;22.30;76.40;;;;;;4993595;28;20034;-74
2021/08/10 01:46:07;;;;;;;11.32;9.57;;;22.30;76.50;;;;;;4993407;28;20081;-74
2021/08/10 01:48:35;;;;;;;10.90;9.40;;;22.30;76.70;;;;;;4993450;28;20031;-74
2021/08/10 01:51:02;;;;;;;11.45;9.48;;;22.30;76.80;;;;;;4993476;28;20053;-74
2021/08/10 01:53:29;;;;;;;11.02;9.50;;;22.20;76.90;;;;;;4993418;28;20023;-74
2021/08/10 01:55:57;;;;;;;16.33;12.30;;;22.20;77.00;;;;;;4993391;28;20095;-75
2021/08/10 01:58:24;;;;;;;18.27;12.57;;;22.20;77.10;;;;;;4993500;28;20060;-74
2021/08/10 02:00:52;;;;;;;18.33;9.82;;;22.20;77.30;;;;;;4993139;28;20023;-74
2021/08/10 02:03:18;;;;;;;12.68;10.02;;;22.20;77.40;;;;;;4993544;28;20102;-74
2021/08/10 02:05:46;;;;;;;11.48;9.98;;;22.20;77.50;;;;;;4993074;28;20156;-74
2021/08/10 02:08:13;;;;;;;12.90;9.80;;;22.10;77.50;;;;;;4992949;28;20484;-74
2021/08/10 02:10:41;;;;;;;11.15;9.40;;;22.10;77.50;;;;;;4993091;28;20069;-73
2021/08/10 02:13:10;;;;;;;12.05;9.75;;;22.10;77.50;;;;;;4992905;28;20033;-73
2021/08/10 02:15:39;;;;;;;15.20;9.35;;;22.10;77.60;;;;;;4992908;28;20464;-73
2021/08/10 02:18:05;;;;;;;16.80;9.80;;;22.10;77.70;;;;;;4992921;28;20029;-73
2021/08/10 02:20:31;;;;;;;14.15;9.85;;;22.10;77.70;;;;;;4993033;28;20026;-73
2021/08/10 02:22:59;;;;;;;11.68;9.82;;;22.00;78.20;;;;;;4992962;28;20026;-73
2021/08/10 02:25:27;;;;;;;11.95;8.93;;;22.00;77.70;;;;;;4992955;28;20033;-73
2021/08/10 02:27:55;;;;;;;11.98;10.05;;;22.00;77.70;;;;;;4992863;28;20042;-75
2021/08/10 02:30:25;;;;;;;13.05;10.27;;;22.00;77.80;;;;;;4992512;28;20026;-75
2021/08/10 02:32:52;;;;;;;17.17;10.15;;;22.00;77.70;;;;;;4992418;28;20500;-74
2021/08/10 02:35:24;;;;;;;13.50;10.48;;;22.00;77.80;;;;;;4992662;28;20392;-74
2021/08/10 02:37:51;;;;;;;11.50;9.45;;;22.00;77.90;;;;;;4992587;28;20050;-74
2021/08/10 02:40:19;;;;;;;12.70;10.27;;;22.00;77.90;;;;;;4975133;28;20040;-73
2021/08/10 02:42:50;;;;;;;11.07;9.43;;;22.00;77.90;;;;;;4992406;28;20030;-73
2021/08/10 02:45:16;;;;;;;17.02;10.50;;;22.00;78.00;;;;;;4992662;28;20105;-73
2021/08/10 02:47:52;;;;;;;11.93;9.88;;;22.00;78.00;;;;;;4992541;28;20105;-73
2021/08/10 02:50:19;;;;;;;12.50;10.13;;;22.00;78.20;;;;;;4992713;28;20019;-74
2021/08/10 02:52:45;;;;;;;17.10;10.65;;;22.00;78.20;;;;;;4992692;28;20031;-73
2021/08/10 02:55:11;;;;;;;30.83;19.88;;;22.00;78.30;;;;;;4975318;28;20038;-73
2021/08/10 02:57:47;;;;;;;13.45;10.95;;;22.00;78.40;;;;;;4992798;28;20041;-73
2021/08/10 03:00:15;;;;;;;15.45;10.82;;;22.00;78.50;;;;;;4992610;28;20049;-74
2021/08/10 03:02:48;;;;;;;14.20;10.82;;;22.00;78.50;;;;;;4992362;28;20030;-74
2021/08/10 03:05:16;;;;;;;12.15;10.73;;;22.10;78.60;;;;;;4992292;28;20027;-74
2021/08/10 03:07:59;;;;;;;12.40;10.32;;;22.10;78.50;;;;;;4992360;28;20034;-75
2021/08/10 03:10:33;;;;;;;19.38;13.00;;;22.20;78.50;;;;;;4992434;28;20608;-74
2021/08/10 03:13:04;;;;;;;15.38;10.20;;;22.30;78.50;;;;;;4992347;28;20516;-74
2021/08/10 03:15:32;;;;;;;14.40;10.35;;;22.40;78.50;;;;;;4992421;28;20029;-74
2021/08/10 03:18:03;;;;;;;14.80;9.90;;;22.70;78.50;;;;;;4992381;28;20377;-74
2021/08/10 03:20:32;;;;;;;13.88;9.48;;;23.20;77.90;;;;;;5007380;28;20025;-75
2021/08/10 03:22:58;;;;;;;13.82;8.73;;;23.90;76.60;;;;;;4975117;28;20489;-74
2021/08/10 03:25:26;;;;;;;14.68;9.20;;;24.60;74.80;;;;;;4992199;28;20023;-74
2021/08/10 03:27:51;;;;;;;13.38;9.20;;;25.30;73.00;;;;;;4992159;28;20384;-74
2021/08/10 03:30:18;;;;;;;11.75;9.27;;;26.10;72.00;;;;;;4992151;28;20022;-74
2021/08/10 03:32:46;;;;;;;15.07;9.00;;;26.80;69.60;;;;;;4992077;28;20038;-74
2021/08/10 03:35:12;;;;;;;11.07;8.70;;;27.50;67.90;;;;;;4991924;28;20050;-74
2021/08/10 03:37:39;;;;;;;13.27;9.77;;;28.10;66.50;;;;;;4992096;28;20041;-74
2021/08/10 03:40:06;;;;;;;12.93;9.88;;;28.80;65.00;;;;;;4992102;28;20027;-75
2021/08/10 03:42:34;;;;;;;15.68;8.43;;;29.40;63.40;;;;;;4992141;28;20027;-75
2021/08/10 03:44:59;;;;;;;11.35;8.40;;;30.00;62.10;;;;;;4995664;28;20032;-75
2021/08/10 03:47:26;;;;;;;12.50;8.23;;;30.60;60.90;;;;;;4995582;28;20109;-74
2021/08/10 03:49:53;;;;;;;11.35;7.88;;;31.20;59.60;;;;;;4995648;28;20034;-75
2021/08/10 03:52:19;;;;;;;12.68;8.43;;;31.60;58.50;;;;;;4995537;28;20033;-75
2021/08/10 03:54:45;;;;;;;13.50;8.18;;;32.10;57.70;;;;;;4995468;28;20030;-75
2021/08/10 03:57:16;;;;;;;14.27;7.93;;;32.60;56.80;;;;;;4995212;28;20022;-74
2021/08/10 03:59:52;;;;;;;14.18;8.07;;;33.20;55.70;;;;;;4995114;28;20028;-74
2021/08/10 04:02:19;;;;;;;10.00;8.23;;;33.70;54.70;;;;;;4995186;28;20122;-74
2021/08/10 04:04:46;;;;;;;12.80;7.65;;;34.30;53.70;;;;;;4995169;28;20038;-74
2021/08/10 04:07:12;;;;;;;13.10;7.55;;;34.80;52.80;;;;;;4995310;28;20105;-74
2021/08/10 04:09:38;;;;;;;10.73;7.95;;;35.40;51.90;;;;;;4995013;28;20030;-74
2021/08/10 04:12:06;;;;;;;14.60;8.43;;;35.80;51.00;;;;;;4994863;28;20037;-74
2021/08/10 04:14:33;;;;;;;12.90;9.50;;;36.30;50.30;;;;;;4995001;28;20031;-74
2021/08/10 04:17:07;;;;;;;15.77;12.98;;;36.70;49.60;;;;;;4994740;28;20030;-75
2021/08/10 04:19:53;;;;;;;10.55;8.90;;;37.10;48.90;;;;;;4994877;28;20022;-74
2021/08/10 04:22:19;;;;;;;14.00;8.00;;;37.60;48.20;;;;;;4994476;28;20029;-75
2021/08/10 04:24:45;;;;;;;12.98;8.30;;;38.00;47.60;;;;;;4977310;28;20030;-73
2021/08/10 04:27:16;;;;;;;15.70;8.65;;;38.40;47.00;;;;;;4994524;28;20068;-73
2021/08/10 04:29:41;;;;;;;;;;;38.80;46.40;;;;;;4994893;28;20019;-73
2021/08/10 04:32:09;;;;;;;9.07;8.15;;;39.20;47.10;;;;;;4994385;28;19916;-73
2021/08/10 04:34:35;;;;;;;9.57;8.45;;;39.60;46.00;;;;;;4994605;28;20228;-73
2021/08/10 04:37:01;;;;;;;10.70;8.48;;;39.90;45.20;;;;;;4994463;28;20041;-74
2021/08/10 04:39:28;;;;;;;13.63;8.88;;;40.30;44.50;;;;;;4994447;28;20109;-73
2021/08/10 04:41:57;;;;;;;8.75;7.85;;;40.70;44.00;;;;;;4994037;28;20303;-73
2021/08/10 04:44:23;;;;;;;14.85;9.40;;;41.10;43.50;;;;;;4993577;28;20030;-74
2021/08/10 04:46:50;;;;;;;13.48;9.45;;;41.50;43.00;;;;;;4993897;28;20026;-74
2021/08/10 04:49:16;;;;;;;16.80;12.75;;;41.80;42.40;;;;;;4993295;28;20037;-73
2021/08/10 04:51:41;;;;;;;22.25;11.68;;;42.10;42.00;;;;;;4992788;28;20018;-74
2021/08/10 04:54:10;;;;;;;11.57;9.30;;;42.30;41.70;;;;;;4992820;28;20354;-73
2021/08/10 04:56:36;;;;;;;12.90;8.95;;;42.60;41.40;;;;;;4993029;28;20098;-74
2021/08/10 04:59:02;;;;;;;11.27;9.15;;;42.80;41.00;;;;;;4992990;28;20105;-74
2021/08/10 05:01:27;;;;;;;14.75;7.78;;;43.10;40.70;;;;;;4993122;28;20060;-75
2021/08/10 05:03:53;;;;;;;13.63;8.98;;;43.30;40.50;;;;;;4993221;28;20030;-74
2021/08/10 05:06:19;;;;;;;10.77;7.97;;;43.50;40.10;;;;;;4993406;28;20033;-74
2021/08/10 05:08:44;;;;;;;11.25;7.63;;;43.80;40.00;;;;;;4993608;28;20034;-74
2021/08/10 05:11:11;;;;;;;13.73;8.50;;;44.10;39.50;;;;;;4993580;28;20057;-75
2021/08/10 05:13:38;;;;;;;10.68;8.50;;;44.30;39.20;;;;;;4993332;28;20030;-75
2021/08/10 05:16:05;;;;;;;8.38;7.55;;;44.50;39.00;;;;;;4993337;28;20030;-75
2021/08/10 05:18:30;;;;;;;10.65;7.70;;;44.60;38.80;;;;;;4975921;28;20030;-73
2021/08/10 05:20:56;;;;;;;10.43;9.00;;;44.70;38.60;;;;;;4993072;28;20027;-75
2021/08/10 05:23:22;;;;;;;8.50;7.15;;;45.00;38.50;;;;;;4993123;28;20050;-75
2021/08/10 05:25:48;;;;;;;8.82;7.57;;;45.10;38.30;;;;;;4993393;28;20023;-76
2021/08/10 05:28:13;;;;;;;12.55;8.40;;;45.30;38.10;;;;;;4993341;28;20385;-75
2021/08/10 05:30:39;;;;;;;8.63;7.72;;;45.60;38.00;;;;;;4992948;28;20063;-74
2021/08/10 05:33:05;;;;;;;14.93;9.10;;;45.70;37.70;;;;;;4993042;28;20515;-75
2021/08/10 05:35:31;;;;;;;10.10;8.00;;;46.00;37.50;;;;;;4993049;28;20030;-75
2021/08/10 05:37:56;;;;;;;16.58;8.40;;;46.20;37.40;;;;;;4992987;28;20030;-74
2021/08/10 05:40:22;;;;;;;10.80;7.18;;;46.30;37.30;;;;;;4993123;28;20841;-75
2021/08/10 05:42:48;;;;;;;11.30;7.75;;;46.40;37.10;;;;;;4992899;28;20027;-75
2021/08/10 05:45:14;;;;;;;7.55;6.80;;;46.60;36.80;;;;;;4993171;28;20071;-75
2021/08/10 05:47:40;;;;;;;12.48;7.20;;;46.70;36.50;;;;;;4992957;28;20041;-75
2021/08/10 05:50:06;;;;;;;14.77;8.15;;;46.80;36.30;;;;;;4992709;28;20149;-75
2021/08/10 05:52:32;;;;;;;10.68;7.35;;;47.00;36.30;;;;;;4992915;28;20030;-75
2021/08/10 05:54:58;;;;;;;8.27;7.18;;;47.40;36.20;;;;;;4992646;28;20035;-75
2021/08/10 05:57:23;;;;;;;9.80;7.50;;;47.50;35.90;;;;;;4992476;28;20438;-76
2021/08/10 05:59:49;;;;;;;12.80;7.28;;;47.60;35.80;;;;;;4992471;28;20337;-75
2021/08/10 06:02:15;;;;;;;9.63;7.70;;;47.80;35.70;;;;;;4992592;28;20488;-76
2021/08/10 06:04:41;;;;;;;9.75;6.88;;;47.90;35.60;;;;;;4992783;28;20019;-76
2021/08/10 06:07:07;;;;;;;11.82;6.85;;;47.90;35.20;;;;;;4992116;28;20026;-77
2021/08/10 06:09:33;;;;;;;16.30;7.05;;;48.00;35.10;;;;;;4992244;28;20049;-75
2021/08/10 06:11:59;;;;;;;10.73;7.90;;;48.00;34.90;;;;;;4992262;28;20053;-76
2021/08/10 06:14:25;;;;;;;14.73;6.55;;;48.10;34.80;;;;;;4992131;28;20062;-74
2021/08/10 06:16:51;;;;;;;11.00;7.05;;;48.10;34.50;;;;;;4992534;28;20073;-75
2021/08/10 06:19:17;;;;;;;7.50;6.70;;;48.10;34.50;;;;;;4992627;28;20030;-75
2021/08/10 06:21:43;;;;;;;12.05;6.60;;;48.10;34.50;;;;;;4992258;28;20445;-75
2021/08/10 06:24:09;;;;;;;9.35;6.45;;;48.20;34.50;;;;;;4992489;28;20069;-75
2021/08/10 06:26:35;;;;;;;12.13;6.63;;;48.20;34.40;;;;;;4992291;28;20464;-75
2021/08/10 06:29:00;;;;;;;11.10;7.40;;;48.30;34.50;;;;;;4992583;28;20045;-75
2021/08/10 06:31:26;;;;;;;8.45;6.35;;;48.40;34.50;;;;;;4974864;28;20027;-74
2021/08/10 06:33:52;;;;;;;8.23;6.70;;;48.50;34.50;;;;;;4992073;28;20062;-74
2021/08/10 06:36:18;;;;;;;10.23;5.90;;;48.50;34.40;;;;;;4991984;28;20030;-76
2021/08/10 06:38:44;;;;;;;8.18;6.13;;;48.60;34.30;;;;;;4991522;28;20073;-77
2021/08/10 06:41:09;;;;;;;14.32;6.50;;;48.50;34.30;;;;;;4992001;28;20457;-76
2021/08/10 06:43:35;;;;;;;9.05;6.28;;;48.50;34.30;;;;;;4991970;28;20049;-76
2021/08/10 06:46:01;;;;;;;9.40;6.93;;;48.50;34.30;;;;;;4996724;28;20464;-76
2021/08/10 06:48:27;;;;;;;12.73;6.60;;;48.30;34.20;;;;;;5011321;28;20026;-76
2021/08/10 06:50:53;;;;;;;8.02;6.13;;;48.30;34.40;;;;;;5006169;28;20027;-76
2021/08/10 06:53:19;;;;;;;10.85;7.35;;;48.20;34.40;;;;;;4992117;28;20026;-76
2021/08/10 06:55:45;;;;;;;10.82;6.43;;;48.10;34.50;;;;;;4991877;28;20110;-76
2021/08/10 06:58:11;;;;;;;9.20;6.57;;;48.10;34.50;;;;;;4991752;28;20022;-75
2021/08/10 07:00:39;;;;;;;15.82;6.75;;;48.00;34.50;;;;;;4992065;28;20029;-75
2021/08/10 07:03:06;;;;;;;12.02;6.72;;;47.90;34.60;;;;;;4992262;28;20034;-76
2021/08/10 07:05:33;;;;;;;9.10;6.75;;;47.70;34.60;;;;;;4991911;28;20030;-78
2021/08/10 07:07:59;;;;;;;11.80;6.63;;;47.60;34.70;;;;;;4992115;28;20018;-76
2021/08/10 07:10:24;;;;;;;10.10;6.45;;;47.50;34.70;;;;;;4991944;28;20104;-76
2021/08/10 07:12:50;;;;;;;7.95;6.18;;;47.50;34.90;;;;;;4991710;28;20161;-75
2021/08/10 07:15:16;;;;;;;8.27;6.53;;;47.40;35.50;;;;;;4991704;28;20056;-75
2021/08/10 07:17:42;;;;;;;7.65;6.95;;;47.30;34.90;;;;;;4992372;28;20029;-76
2021/08/10 07:20:08;;;;;;;11.18;6.53;;;47.10;34.80;;;;;;4996064;28;20049;-76
2021/08/10 07:22:34;;;;;;;10.55;6.35;;;46.90;34.90;;;;;;4995719;28;20019;-76
2021/08/10 07:25:00;;;;;;;8.90;7.82;;;46.70;35.20;;;;;;4995590;28;20026;-76
2021/08/10 07:27:25;;;;;;;15.57;7.15;;;46.50;35.40;;;;;;4995648;28;20034;-77
2021/08/10 07:29:51;;;;;;;7.55;6.10;;;46.30;35.60;;;;;;4995766;28;20026;-77
2021/08/10 07:32:17;;;;;;;14.73;6.93;;;46.20;35.70;;;;;;4995083;28;20164;-77
2021/08/10 07:34:42;;;;;;;9.43;5.90;;;45.90;35.70;;;;;;4995438;28;20030;-76
2021/08/10 07:37:08;;;;;;;10.75;6.80;;;45.80;35.80;;;;;;4995527;28;20022;-77
2021/08/10 07:39:34;;;;;;;9.60;6.65;;;45.80;36.20;;;;;;4995318;28;20049;-77
2021/08/10 07:42:00;;;;;;;14.07;6.93;;;45.70;36.40;;;;;;4977506;28;20031;-77
2021/08/10 07:44:25;;;;;;;17.58;9.27;;;45.60;36.40;;;;;;4995104;28;20026;-77
2021/08/10 07:46:51;;;;;;;18.77;9.98;;;45.30;36.20;;;;;;4994867;28;20050;-77
2021/08/10 07:49:17;;;;;;;46.85;16.90;;;45.10;36.40;;;;;;4995048;28;20030;-78
2021/08/10 07:51:43;;;;;;;21.92;10.45;;;44.90;36.60;;;;;;4995273;28;20034;-80
2021/08/10 07:54:09;;;;;;;31.35;11.38;;;44.60;36.60;;;;;;4995107;28;20030;-78
2021/08/10 07:56:34;;;;;;;77.03;16.63;;;44.30;36.70;;;;;;4995135;28;20477;-78
2021/08/10 07:59:00;;;;;;;72.93;12.93;;;44.00;36.80;;;;;;4994802;28;20046;-77
2021/08/10 08:01:26;;;;;;;13.50;6.88;;;43.90;37.30;;;;;;4994664;28;20077;-77
2021/08/10 08:03:52;;;;;;;25.17;8.30;;;43.70;37.80;;;;;;4994929;28;20039;-77
2021/08/10 08:06:19;;;;;;;14.15;7.35;;;43.50;38.10;;;;;;4994689;28;20097;-77
2021/08/10 08:08:44;;;;;;;14.32;7.60;;;43.30;38.20;;;;;;4994691;28;20033;-77
2021/08/10 08:11:10;;;;;;;14.27;7.50;;;43.10;38.50;;;;;;4994666;28;20026;-77
2021/08/10 08:13:36;;;;;;;11.88;7.07;;;42.80;38.80;;;;;;4977339;28;20161;-78
2021/08/10 08:16:02;;;;;;;10.38;6.88;;;42.60;38.90;;;;;;4994628;28;20117;-78
2021/08/10 08:18:27;;;;;;;12.85;7.00;;;42.30;38.90;;;;;;4994870;28;20031;-78
2021/08/10 08:20:53;;;;;;;9.70;6.57;;;42.10;39.40;;;;;;4994230;28;20422;-78
2021/08/10 08:23:19;;;;;;;18.48;7.25;;;41.70;39.70;;;;;;4994364;28;20096;-76
2021/08/10 08:25:46;;;;;;;8.13;7.07;;;41.50;40.10;;;;;;4994288;28;20060;-77
2021/08/10 08:28:13;;;;;;;12.70;7.85;;;41.20;40.40;;;;;;4994334;28;20089;-77
2021/08/10 08:30:40;;;;;;;16.63;8.23;;;41.00;40.40;;;;;;4994495;28;20509;-77
2021/08/10 08:33:07;;;;;;;11.68;6.97;;;40.80;40.60;;;;;;4994128;28;20048;-76
2021/08/10 08:35:34;;;;;;;11.77;6.88;;;40.60;41.00;;;;;;4994256;28;20018;-76
2021/08/10 08:38:00;;;;;;;8.82;6.70;;;40.40;41.40;;;;;;4994206;28;20473;-77
2021/08/10 08:40:27;;;;;;;25.73;11.25;;;40.20;41.50;;;;;;4994357;28;20138;-78
2021/08/10 08:42:53;;;;;;;30.45;11.48;;;40.10;41.60;;;;;;4994194;28;20447;-77
2021/08/10 08:45:19;;;;;;;41.97;13.05;;;39.90;41.70;;;;;;4994090;28;20037;-76
2021/08/10 08:47:51;;;;;;;23.75;10.48;;;39.80;42.00;;;;;;4993922;28;20242;-76
2021/08/10 08:50:22;;;;;;;11.10;6.88;;;39.60;42.00;;;;;;4994052;28;20497;-75
2021/08/10 08:52:53;;;;;;;25.45;9.20;;;39.40;42.10;;;;;;4993876;28;20105;-76
2021/08/10 08:55:20;;;;;;;24.88;9.88;;;39.30;42.20;;;;;;4994004;28;20026;-75
2021/08/10 08:57:46;;;;;;;11.70;6.95;;;39.30;42.50;;;;;;4994826;28;20023;-76
2021/08/10 09:00:13;;;;;;;11.15;6.78;;;39.20;42.70;;;;;;4993890;28;20034;-77
2021/08/10 09:02:40;;;;;;;15.52;7.22;;;39.20;43.20;;;;;;4993935;28;20027;-76
2021/08/10 09:05:07;;;;;;;14.98;7.47;;;39.10;43.00;;;;;;4976987;28;20476;-75
2021/08/10 09:07:33;;;;;;;15.15;7.00;;;39.00;43.10;;;;;;4993990;28;20022;-74
2021/08/10 09:10:17;;;;;;;14.02;7.15;;;38.90;43.20;;;;;;4976380;28;20029;-75
2021/08/10 09:12:47;;;;;;;17.48;7.28;;;38.80;43.30;;;;;;4976496;28;20054;-76
2021/08/10 09:15:28;;;;;;;13.00;7.50;;;38.70;43.30;;;;;;4993440;28;20105;-76
2021/08/10 09:17:54;;;;;;;11.05;7.32;;;38.60;43.20;;;;;;4993430;28;20550;-75
2021/08/10 09:20:21;;;;;;;16.00;7.68;;;38.50;43.60;;;;;;4993179;28;20054;-76
2021/08/10 09:22:51;;;;;;;15.15;7.95;;;38.40;44.10;;;;;;4993163;28;20037;-77
2021/08/10 09:25:17;;;;;;;18.00;7.15;;;38.40;44.50;;;;;;4993235;28;20029;-75
2021/08/10 09:27:43;;;;;;;12.35;6.88;;;38.20;44.30;;;;;;4993042;28;20031;-75
2021/08/10 09:30:25;;;;;;;15.43;7.18;;;38.20;44.30;;;;;;4992484;28;20417;-75
2021/08/10 09:32:51;;;;;;;9.23;6.18;;;38.10;44.20;;;;;;4992729;28;20457;-75
2021/08/10 09:35:18;;;;;;;14.18;7.32;;;38.00;44.30;;;;;;4992841;28;20113;-74
2021/08/10 09:38:07;;;;;;;16.77;7.57;;;37.90;44.40;;;;;;4993288;28;20106;-76
2021/08/10 09:40:48;;;;;;;14.82;7.40;;;37.80;44.40;;;;;;4992737;28;20380;-76
2021/08/10 09:43:35;;;;;;;10.75;6.53;;;37.60;44.50;;;;;;4992709;28;20028;-75
2021/08/10 09:46:10;;;;;;;17.60;7.47;;;37.50;44.80;;;;;;4992950;28;20033;-75
2021/08/10 09:48:38;;;;;;;11.40;6.80;;;37.40;44.90;;;;;;4993397;28;20022;-75
2021/08/10 09:51:08;;;;;;;12.18;7.05;;;37.30;45.20;;;;;;4993518;28;20027;-77
2021/08/10 09:53:34;;;;;;;21.45;7.13;;;37.20;45.30;;;;;;4993624;28;20461;-76
2021/08/10 09:56:00;;;;;;;9.73;6.43;;;37.20;45.30;;;;;;4992378;28;20026;-76
2021/08/10 09:58:25;;;;;;;11.07;6.78;;;37.00;45.30;;;;;;4992526;28;20030;-76
2021/08/10 10:00:52;;;;;;;13.90;6.80;;;36.90;45.50;;;;;;4992385;28;20022;-76
2021/08/10 10:03:19;;;;;;;12.38;6.70;;;36.90;45.70;;;;;;4992722;28;20110;-76
2021/08/10 10:05:46;;;;;;;20.80;7.13;;;36.70;45.60;;;;;;4992528;28;20037;-76
2021/08/10 10:08:21;;;;;;;14.45;7.03;;;36.70;45.90;;;;;;4992119;28;20397;-76
2021/08/10 10:10:49;;;;;;;23.10;7.53;;;36.60;46.10;;;;;;4992063;28;20030;-75
2021/08/10 10:13:20;;;;;;;12.95;7.00;;;36.50;46.40;;;;;;4974597;28;20026;-74
2021/08/10 10:15:46;;;;;;;;;;;36.40;46.40;;;;;;4975146;28;20034;-75
2021/08/10 10:18:13;;;;;;;11.60;6.53;;;36.40;46.30;;;;;;4991919;28;19905;-75
2021/08/10 10:20:46;;;;;;;12.70;6.63;;;36.40;46.70;;;;;;4992267;28;20023;-76
2021/08/10 10:23:32;;;;;;;20.73;8.27;;;36.40;47.20;;;;;;4992055;28;20853;-75
2021/08/10 10:26:00;;;;;;;16.02;7.57;;;36.30;47.20;;;;;;4991448;28;20058;-75
2021/08/10 10:28:27;;;;;;;11.90;6.90;;;36.20;47.20;;;;;;4992158;28;20033;-75
2021/08/10 10:30:53;;;;;;;12.82;6.90;;;36.10;47.90;;;;;;4974654;28;20053;-75
2021/08/10 10:33:18;;;;;;;12.43;7.28;;;36.10;47.70;;;;;;4991864;28;20101;-76
2021/08/10 10:35:46;;;;;;;14.10;7.05;;;36.00;47.80;;;;;;4992182;28;20038;-75
2021/08/10 10:38:12;;;;;;;14.82;6.78;;;35.90;48.00;;;;;;4992016;28;20022;-76
2021/08/10 10:40:38;;;;;;;12.50;7.03;;;35.80;47.90;;;;;;5003609;28;20052;-76
2021/08/10 10:43:05;;;;;;;13.27;7.45;;;35.80;48.00;;;;;;5011346;28;20025;-76
2021/08/10 10:45:40;;;;;;;11.27;7.10;;;35.70;48.20;;;;;;5011187;28;20022;-76
2021/08/10 10:48:27;;;;;;;11.50;7.18;;;35.60;48.40;;;;;;5011197;28;20022;-77
2021/08/10 10:51:07;;;;;;;15.38;6.40;;;35.50;48.60;;;;;;4992605;28;20075;-76
2021/08/10 10:53:33;;;;;;;14.02;7.25;;;35.50;48.60;;;;;;5010583;28;20018;-79
2021/08/10 10:55:59;;;;;;;16.40;6.85;;;35.30;48.50;;;;;;5010919;28;20044;-77
2021/08/10 10:58:32;;;;;;;16.45;7.45;;;35.20;48.60;;;;;;5010932;28;20037;-76
2021/08/10 11:01:22;;;;;;;24.35;7.32;;;35.00;48.90;;;;;;5010699;28;20023;-76
2021/08/10 11:04:03;;;;;;;21.65;7.82;;;34.90;49.00;;;;;;5011105;28;20034;-78
2021/08/10 11:06:35;;;;;;;14.82;6.43;;;34.80;49.00;;;;;;5010599;28;20026;-76
2021/08/10 11:09:03;;;;;;;19.13;6.80;;;34.80;49.20;;;;;;5010779;28;20097;-76
2021/08/10 11:11:47;;;;;;;12.43;6.85;;;34.80;49.10;;;;;;5011174;28;20026;-76
2021/08/10 11:14:35;;;;;;;10.50;6.18;;;34.70;49.00;;;;;;5010790;28;20483;-76
2021/08/10 11:17:21;;;;;;;12.27;6.28;;;34.70;49.20;;;;;;5010756;28;20033;-76
2021/08/10 11:19:49;;;;;;;12.75;6.90;;;34.70;49.50;;;;;;5010192;28;20784;-75
2021/08/10 11:22:14;;;;;;;8.00;6.78;;;34.60;49.40;;;;;;5010648;28;20121;-75
2021/08/10 11:25:01;;;;;;;14.00;6.70;;;34.70;49.70;;;;;;5010220;28;20097;-75
2021/08/10 11:27:32;;;;;;;13.00;6.80;;;34.60;49.60;;;;;;5010397;28;20469;-77
2021/08/10 11:30:01;;;;;;;10.57;6.45;;;34.60;49.40;;;;;;5010554;28;20017;-76
2021/08/10 11:32:35;;;;;;;18.25;5.97;;;34.60;49.30;;;;;;5010451;28;20042;-75
2021/08/10 11:35:25;;;;;;;9.63;6.38;;;34.50;49.00;;;;;;5010564;28;20029;-76
2021/08/10 11:38:06;;;;;;;8.82;6.28;;;34.50;49.10;;;;;;5010769;28;20106;-77
2021/08/10 11:40:47;;;;;;;13.02;7.18;;;34.50;49.40;;;;;;5011298;28;20025;-76
2021/08/10 11:43:13;;;;;;;13.23;7.15;;;34.40;49.50;;;;;;4993668;28;20559;-75
2021/08/10 11:45:40;;;;;;;13.70;6.90;;;34.40;49.60;;;;;;5011360;28;20026;-75
2021/08/10 11:48:06;;;;;;;14.52;6.95;;;34.40;49.70;;;;;;4993216;28;20036;-75
2021/08/10 11:50:33;;;;;;;12.73;6.35;;;34.30;49.70;;;;;;5011534;28;20030;-76
2021/08/10 11:53:02;;;;;;;17.02;6.70;;;34.30;49.60;;;;;;5010827;28;20030;-76
2021/08/10 11:55:33;;;;;;;10.20;6.55;;;34.20;49.70;;;;;;4993368;28;20033;-76
2021/08/10 11:58:03;;;;;;;15.10;7.07;;;34.20;50.00;;;;;;5011179;28;20407;-77
2021/08/10 12:00:30;;;;;;;10.73;7.32;;;34.20;50.20;;;;;;5011095;28;20022;-76
2021/08/10 12:02:57;;;;;;;16.20;6.45;;;34.10;50.30;;;;;;5010630;28;20033;-77
2021/08/10 12:05:23;;;;;;;15.40;7.28;;;34.10;50.40;;;;;;5014077;28;20105;-77
2021/08/10 12:07:50;;;;;;;14.90;6.65;;;34.00;50.30;;;;;;5014412;28;20022;-76
2021/08/10 12:10:21;;;;;;;11.82;6.20;;;34.00;50.30;;;;;;5014640;28;20026;-77
2021/08/10 12:12:47;;;;;;;13.97;6.43;;;34.00;50.50;;;;;;5014575;28;20025;-77
2021/08/10 12:15:36;;;;;;;10.85;6.47;;;33.90;50.50;;;;;;5014767;28;20072;-77
2021/08/10 12:18:02;;;;;;;17.08;7.15;;;33.90;50.70;;;;;;5014429;28;20113;-77
2021/08/10 12:20:28;;;;;;;9.13;6.95;;;33.80;50.80;;;;;;5014563;28;20468;-78
2021/08/10 12:23:06;;;;;;;12.82;6.35;;;33.80;50.90;;;;;;5014819;28;20026;-76
2021/08/10 12:25:32;;;;;;;15.35;7.50;;;33.70;51.00;;;;;;5014420;28;20072;-76
2021/08/10 12:28:09;;;;;;;18.02;7.25;;;33.60;51.00;;;;;;5014398;28;20029;-78
2021/08/10 12:30:36;;;;;;;10.10;7.00;;;33.60;51.00;;;;;;5014234;28;20101;-76
2021/08/10 12:33:17;;;;;;;21.08;6.72;;;33.60;51.30;;;;;;5014245;28;20056;-75
2021/08/10 12:36:01;;;;;;;14.02;5.90;;;33.50;51.30;;;;;;5014030;28;20022;-76
2021/08/10 12:38:27;;;;;;;12.77;6.05;;;33.50;51.40;;;;;;5013820;28;20025;-76
2021/08/10 12:40:56;;;;;;;17.20;6.20;;;33.50;51.50;;;;;;5013224;28;20132;-77
2021/08/10 12:43:23;;;;;;;9.15;6.25;;;33.50;51.50;;;;;;5012908;28;20021;-75
2021/08/10 12:45:49;;;;;;;9.90;6.03;;;33.40;52.20;;;;;;5013379;28;20454;-76